Time;durP1;ratioP1;P1;durP2;ratioP2;P2;SDS_P1;SDS_P2;PMS_P1;PMS_P2;Temp;Humidity;BMP_temperature;BMP_pressure;BME280_temperature;BME280_humidity;BME280_pressure;Samples;Min_cycle;Max_cycle;Signal;HPM_P1;HPM_P2
2024/01/18 00:00:30;;;;;;;18.23;11.87;;;-1.20;99.90;;;;;;5016250;28;20187;-51
2024/01/18 00:02:58;;;;;;;18.23;11.87;;;-1.20;99.90;;;;;;5038368;28;20688;-51
2024/01/18 00:05:25;;;;;;;19.27;12.23;;;-1.30;99.90;;;;;;5039622;28;20277;-50
2024/01/18 00:07:51;;;;;;;18.23;12.87;;;-1.30;99.90;;;;;;5013272;28;20211;-49
2024/01/18 00:10:23;;;;;;;18.67;12.27;;;-1.30;99.90;;;;;;5032121;28;20199;-48
2024/01/18 00:12:50;;;;;;;16.50;12.00;;;-1.40;99.90;;;;;;5035635;28;20564;-50
2024/01/18 00:15:17;;;;;;;17.00;11.90;;;-1.40;99.90;;;;;;5021905;28;21015;-50
2024/01/18 00:17:43;;;;;;;18.13;12.13;;;-1.40;99.90;;;;;;5038793;28;20202;-51
2024/01/18 00:20:12;;;;;;;18.47;13.07;;;-1.50;99.90;;;;;;5044186;28;20198;-48
2024/01/18 00:22:39;;;;;;;19.77;12.83;;;-1.50;99.90;;;;;;5021285;28;20265;-53
2024/01/18 00:25:08;;;;;;;18.57;12.27;;;-1.50;99.90;;;;;;5030750;28;20200;-48
2024/01/18 00:27:34;;;;;;;20.03;12.60;;;-1.60;99.90;;;;;;5040128;28;20671;-53
2024/01/18 00:30:01;;;;;;;16.27;12.60;;;-1.60;99.90;;;;;;5030908;28;20229;-47
2024/01/18 00:32:28;;;;;;;19.30;12.47;;;-1.50;99.90;;;;;;5045743;28;20256;-46
2024/01/18 00:34:55;;;;;;;17.77;12.37;;;-1.50;99.90;;;;;;5042683;28;20233;-47
2024/01/18 00:37:24;;;;;;;18.13;12.60;;;-1.50;99.90;;;;;;5042936;28;20268;-49
2024/01/18 00:39:51;;;;;;;23.30;12.80;;;-1.50;99.90;;;;;;5014929;28;20233;-46
2024/01/18 00:42:17;;;;;;;18.03;13.57;;;-1.50;99.90;;;;;;5037326;28;20778;-50
2024/01/18 00:44:44;;;;;;;19.17;13.33;;;-1.50;99.90;;;;;;5018498;28;20196;-52
2024/01/18 00:47:11;;;;;;;23.57;13.87;;;-1.50;99.90;;;;;;5016481;28;20207;-46
2024/01/18 00:49:38;;;;;;;21.53;14.03;;;-1.50;99.90;;;;;;5033416;28;20214;-50
2024/01/18 00:52:05;;;;;;;19.13;13.03;;;-1.50;99.90;;;;;;5036913;28;20280;-46
2024/01/18 00:54:34;;;;;;;21.20;12.77;;;-1.50;99.90;;;;;;5011725;28;20222;-52
2024/01/18 00:57:01;;;;;;;19.10;13.47;;;-1.50;99.90;;;;;;5034226;28;20866;-46
2024/01/18 00:59:29;;;;;;;19.17;12.83;;;-1.50;99.90;;;;;;5028163;28;20648;-47
2024/01/18 01:01:55;;;;;;;20.50;14.20;;;-1.50;99.90;;;;;;5031409;28;20202;-49
2024/01/18 01:04:22;;;;;;;20.97;13.67;;;-1.60;99.90;;;;;;5040840;28;20557;-48
2024/01/18 01:06:49;;;;;;;18.93;13.37;;;-1.60;99.90;;;;;;5038187;28;20252;-48
2024/01/18 01:09:16;;;;;;;20.13;13.90;;;-1.60;99.90;;;;;;5012521;28;20249;-52
2024/01/18 01:11:45;;;;;;;19.70;14.40;;;-1.60;99.90;;;;;;5034260;28;20228;-49
2024/01/18 01:14:11;;;;;;;19.27;13.43;;;-1.60;99.90;;;;;;5024147;28;20228;-46
2024/01/18 01:16:38;;;;;;;17.80;13.73;;;-1.60;99.90;;;;;;5005521;28;20957;-46
2024/01/18 01:19:05;;;;;;;20.17;14.53;;;-1.60;99.90;;;;;;5048082;28;20226;-46
2024/01/18 01:21:32;;;;;;;22.67;14.33;;;-1.60;99.90;;;;;;5036826;28;20215;-51
2024/01/18 01:23:59;;;;;;;18.33;13.60;;;-1.60;99.90;;;;;;5041982;28;20206;-47
2024/01/18 01:26:25;;;;;;;19.43;14.93;;;-1.60;99.90;;;;;;5010221;28;20209;-51
2024/01/18 01:28:53;;;;;;;23.93;15.50;;;-1.60;99.90;;;;;;5037606;28;21612;-47
2024/01/18 01:31:20;;;;;;;23.63;14.73;;;-1.60;99.90;;;;;;5039125;28;20233;-50
2024/01/18 01:33:47;;;;;;;19.90;14.30;;;-1.60;99.90;;;;;;5039202;28;20348;-47
2024/01/18 01:36:14;;;;;;;21.00;15.10;;;-1.70;99.90;;;;;;5041193;28;20222;-50
2024/01/18 01:38:41;;;;;;;23.80;15.13;;;-1.70;99.90;;;;;;5043111;28;20221;-51
2024/01/18 01:41:08;;;;;;;19.83;14.60;;;-1.70;99.90;;;;;;5010027;28;20238;-48
2024/01/18 01:43:35;;;;;;;22.47;14.87;;;-1.70;99.90;;;;;;5028999;28;20205;-53
2024/01/18 01:46:03;;;;;;;25.80;15.50;;;-1.70;99.90;;;;;;5032289;28;20206;-48
2024/01/18 01:48:30;;;;;;;21.40;15.57;;;-1.70;99.90;;;;;;5024339;28;20225;-53
2024/01/18 01:50:57;;;;;;;21.83;14.97;;;-1.70;99.90;;;;;;5041023;28;20233;-49
2024/01/18 01:53:24;;;;;;;21.87;14.17;;;-1.70;99.90;;;;;;5034395;28;20653;-54
2024/01/18 01:55:51;;;;;;;25.67;15.53;;;-1.80;99.90;;;;;;5033860;28;20222;-46
2024/01/18 01:58:21;;;;;;;21.90;15.23;;;-1.80;99.90;;;;;;5008133;28;20222;-51
2024/01/18 02:00:48;;;;;;;19.87;14.23;;;-1.80;99.90;;;;;;5025809;28;20199;-49
2024/01/18 02:03:16;;;;;;;23.43;14.27;;;-1.80;99.90;;;;;;5033854;28;20217;-51
2024/01/18 02:05:43;;;;;;;19.30;14.33;;;-1.80;99.90;;;;;;5028853;28;20705;-46
2024/01/18 02:08:11;;;;;;;20.20;14.17;;;-1.90;99.90;;;;;;5034400;28;20598;-46
2024/01/18 02:10:38;;;;;;;22.73;15.20;;;-1.90;99.90;;;;;;5036415;28;20278;-46
2024/01/18 02:13:05;;;;;;;21.53;15.23;;;-1.90;99.90;;;;;;5010445;28;20209;-46
2024/01/18 02:15:33;;;;;;;20.97;15.03;;;-2.00;99.90;;;;;;5018451;28;20226;-53
2024/01/18 02:18:00;;;;;;;23.03;15.63;;;-2.00;99.90;;;;;;5039763;28;20945;-46
2024/01/18 02:20:28;;;;;;;25.23;14.87;;;-2.00;99.90;;;;;;5030976;28;20278;-53
2024/01/18 02:22:56;;;;;;;22.23;15.10;;;-2.00;99.90;;;;;;5019246;28;20205;-46
2024/01/18 02:25:27;;;;;;;22.57;14.93;;;-2.00;99.90;;;;;;5043610;28;20723;-53
2024/01/18 02:27:55;;;;;;;20.40;14.80;;;-2.00;99.90;;;;;;5002392;28;21021;-47
2024/01/18 02:30:22;;;;;;;22.63;15.47;;;-2.00;99.90;;;;;;5026815;28;20196;-52
2024/01/18 02:32:49;;;;;;;20.30;14.40;;;-2.00;99.90;;;;;;5039315;28;20202;-47
2024/01/18 02:35:16;;;;;;;27.47;15.63;;;-2.00;99.90;;;;;;5039610;28;20235;-53
2024/01/18 02:37:44;;;;;;;23.60;15.30;;;-2.10;99.90;;;;;;5022705;28;20925;-47
2024/01/18 02:40:11;;;;;;;21.33;14.97;;;-2.10;99.90;;;;;;5048667;28;20193;-46
2024/01/18 02:42:39;;;;;;;21.53;14.33;;;-2.20;99.90;;;;;;5006502;28;20302;-49
2024/01/18 02:45:08;;;;;;;20.20;14.60;;;-2.20;99.90;;;;;;5030885;28;20207;-47
2024/01/18 02:47:36;;;;;;;19.33;13.93;;;-2.20;99.90;;;;;;5050121;28;20199;-52
2024/01/18 02:50:03;;;;;;;20.53;14.17;;;-2.30;99.90;;;;;;5047868;28;20233;-49
2024/01/18 02:52:30;;;;;;;22.93;15.13;;;-2.40;99.90;;;;;;5036265;28;20730;-52
2024/01/18 02:54:57;;;;;;;26.60;15.20;;;-2.40;99.90;;;;;;5035700;28;20221;-46
2024/01/18 02:57:23;;;;;;;20.57;14.87;;;-2.40;99.90;;;;;;5025004;28;20255;-52
2024/01/18 02:59:52;;;;;;;20.57;15.50;;;-2.40;99.90;;;;;;5028659;28;20973;-46
2024/01/18 03:02:18;;;;;;;26.27;16.23;;;-2.40;99.90;;;;;;5033301;28;20209;-50
2024/01/18 03:04:45;;;;;;;22.63;15.93;;;-2.40;99.90;;;;;;5037885;28;20185;-48
2024/01/18 03:07:12;;;;;;;22.77;15.67;;;-2.40;99.90;;;;;;5027508;28;20238;-50
2024/01/18 03:09:39;;;;;;;20.50;14.67;;;-2.40;99.90;;;;;;5031526;28;20213;-49
2024/01/18 03:12:07;;;;;;;23.30;15.47;;;-2.50;99.90;;;;;;5035592;28;20936;-48
2024/01/18 03:14:34;;;;;;;24.20;15.73;;;-2.50;99.90;;;;;;4998011;28;20246;-53
2024/01/18 03:17:03;;;;;;;18.47;13.77;;;-2.50;99.90;;;;;;5028767;28;20219;-46
2024/01/18 03:19:30;;;;;;;18.97;13.27;;;-2.60;99.90;;;;;;5030058;28;20231;-52
2024/01/18 03:21:57;;;;;;;25.87;14.53;;;-2.60;99.90;;;;;;5037296;28;20194;-50
2024/01/18 03:24:23;;;;;;;23.53;16.00;;;-2.60;99.90;;;;;;5038779;28;20334;-50
2024/01/18 03:26:50;;;;;;;22.27;14.20;;;-2.60;99.90;;;;;;5035882;28;20197;-47
2024/01/18 03:29:17;;;;;;;21.37;15.30;;;-2.60;99.90;;;;;;5011579;28;20218;-47
2024/01/18 03:31:44;;;;;;;19.53;14.00;;;-2.70;99.90;;;;;;5045480;28;20191;-46
2024/01/18 03:34:12;;;;;;;21.30;13.97;;;-2.70;99.90;;;;;;5028728;28;20197;-44
2024/01/18 03:36:39;;;;;;;19.50;14.77;;;-2.70;99.90;;;;;;5035221;28;20232;-44
2024/01/18 03:39:07;;;;;;;20.57;14.57;;;-2.80;99.90;;;;;;5028148;28;20282;-44
2024/01/18 03:41:33;;;;;;;19.03;14.67;;;-2.80;99.90;;;;;;5034116;28;20262;-49
2024/01/18 03:44:00;;;;;;;19.07;13.77;;;-2.80;99.90;;;;;;5008938;28;20278;-47
2024/01/18 03:46:27;;;;;;;22.63;14.90;;;-2.80;99.90;;;;;;5039322;28;20200;-51
2024/01/18 03:48:54;;;;;;;20.53;13.50;;;-2.90;99.90;;;;;;5029091;28;20214;-48
2024/01/18 03:51:22;;;;;;;20.30;14.47;;;-3.00;99.90;;;;;;5042750;28;20196;-52
2024/01/18 03:53:49;;;;;;;20.33;14.17;;;-3.00;99.90;;;;;;5028827;28;20207;-46
2024/01/18 03:56:16;;;;;;;16.80;13.40;;;-3.00;99.90;;;;;;5050944;28;20218;-48
2024/01/18 03:58:43;;;;;;;25.57;13.40;;;-3.10;99.90;;;;;;5043034;28;20206;-51
2024/01/18 04:01:10;;;;;;;18.67;12.97;;;-3.20;99.90;;;;;;5015782;28;20573;-45
2024/01/18 04:03:36;;;;;;;22.27;14.53;;;-3.20;99.90;;;;;;5027448;28;20204;-49
2024/01/18 04:06:04;;;;;;;20.70;14.50;;;-3.20;99.90;;;;;;5034953;28;20207;-48
2024/01/18 04:08:32;;;;;;;22.13;14.80;;;-3.20;99.90;;;;;;5024807;28;20734;-54
2024/01/18 04:10:59;;;;;;;21.57;14.30;;;-3.20;99.90;;;;;;5039946;28;20220;-46
2024/01/18 04:13:25;;;;;;;21.27;14.43;;;-3.20;99.90;;;;;;5031668;28;20285;-51
2024/01/18 04:15:52;;;;;;;18.33;13.80;;;-3.20;99.90;;;;;;5013986;28;20274;-46
2024/01/18 04:18:19;;;;;;;21.40;14.73;;;-3.20;99.90;;;;;;5025860;28;20709;-51
2024/01/18 04:20:52;;;;;;;18.23;13.63;;;-3.20;99.90;;;;;;5029125;28;20192;-44
2024/01/18 04:23:19;;;;;;;21.90;14.33;;;-3.10;99.90;;;;;;5033528;28;20257;-48
2024/01/18 04:25:51;;;;;;;26.00;15.40;;;-3.10;99.90;;;;;;5027004;28;20255;-45
2024/01/18 04:28:18;;;;;;;21.03;14.00;;;-3.20;99.90;;;;;;5036566;28;20239;-50
2024/01/18 04:30:45;;;;;;;22.20;14.00;;;-3.20;99.90;;;;;;5003994;28;20212;-46
2024/01/18 04:33:12;;;;;;;22.87;14.93;;;-3.10;99.90;;;;;;5033847;28;20686;-48
2024/01/18 04:35:39;;;;;;;22.93;14.70;;;-3.10;99.90;;;;;;5031807;28;21030;-47
2024/01/18 04:38:07;;;;;;;20.87;14.63;;;-3.10;99.90;;;;;;5033233;28;20220;-48
2024/01/18 04:40:34;;;;;;;24.27;15.37;;;-3.00;99.90;;;;;;5031786;28;20207;-54
2024/01/18 04:43:02;;;;;;;24.40;15.00;;;-2.90;99.90;;;;;;5039852;28;20549;-48
2024/01/18 04:45:29;;;;;;;22.80;14.37;;;-2.90;99.90;;;;;;5016396;28;20245;-52
2024/01/18 04:47:56;;;;;;;22.47;15.33;;;-3.00;99.90;;;;;;5031234;28;20679;-49
2024/01/18 04:50:24;;;;;;;19.27;13.97;;;-3.00;99.90;;;;;;5030311;28;20814;-51
2024/01/18 04:52:51;;;;;;;23.30;14.23;;;-3.00;99.90;;;;;;5040656;28;20942;-46
2024/01/18 04:55:18;;;;;;;22.23;14.20;;;-3.00;99.90;;;;;;5032335;28;20608;-52
2024/01/18 04:57:47;;;;;;;23.77;15.20;;;-3.00;99.90;;;;;;5032411;28;20195;-48
2024/01/18 05:00:15;;;;;;;21.30;14.77;;;-3.00;99.90;;;;;;5040908;28;20253;-46
2024/01/18 05:02:44;;;;;;;19.47;13.83;;;-3.00;99.90;;;;;;5008280;28;20261;-47
2024/01/18 05:05:11;;;;;;;25.17;15.03;;;-2.90;99.90;;;;;;5040370;28;20188;-47
2024/01/18 05:07:40;;;;;;;22.73;15.27;;;-3.00;99.90;;;;;;5030176;28;20868;-48
2024/01/18 05:10:09;;;;;;;18.60;13.83;;;-3.00;99.90;;;;;;5043364;28;20191;-47
2024/01/18 05:12:37;;;;;;;20.43;14.00;;;-3.00;99.90;;;;;;5033183;28;20273;-47
2024/01/18 05:15:04;;;;;;;21.70;14.23;;;-3.10;99.90;;;;;;5034932;28;20705;-50
2024/01/18 05:17:35;;;;;;;21.50;14.40;;;-3.10;99.90;;;;;;4988910;28;20218;-51
2024/01/18 05:20:04;;;;;;;19.67;13.60;;;-3.10;99.90;;;;;;5044972;28;20298;-49
2024/01/18 05:22:31;;;;;;;19.27;13.60;;;-3.20;99.90;;;;;;5038830;28;20194;-48
2024/01/18 05:24:59;;;;;;;21.03;14.50;;;-3.30;99.90;;;;;;5040202;28;20200;-50
2024/01/18 05:27:27;;;;;;;18.97;13.23;;;-3.30;99.90;;;;;;5025671;28;20204;-50
2024/01/18 05:29:54;;;;;;;18.93;13.43;;;-3.30;99.90;;;;;;5050460;28;20579;-49
2024/01/18 05:32:21;;;;;;;17.47;13.00;;;-3.40;99.90;;;;;;4986170;28;22383;-51
2024/01/18 05:34:50;;;;;;;21.37;13.40;;;-3.40;99.90;;;;;;5043335;28;20207;-50
2024/01/18 05:37:17;;;;;;;21.83;13.80;;;-3.40;99.90;;;;;;5035233;28;20242;-48
2024/01/18 05:39:44;;;;;;;20.63;13.93;;;-3.40;99.90;;;;;;5041706;28;20220;-49
2024/01/18 05:42:11;;;;;;;19.43;12.83;;;-3.40;99.90;;;;;;5021795;28;20200;-51
2024/01/18 05:44:38;;;;;;;19.93;12.87;;;-3.40;99.90;;;;;;5030821;28;20281;-49
2024/01/18 05:47:05;;;;;;;21.87;13.40;;;-3.50;99.90;;;;;;5037821;28;20183;-50
2024/01/18 05:49:32;;;;;;;20.53;12.97;;;-3.50;99.90;;;;;;5009325;28;20275;-50
2024/01/18 05:52:00;;;;;;;15.43;12.83;;;-3.40;99.90;;;;;;5027545;28;20204;-50
2024/01/18 05:54:27;;;;;;;19.37;12.37;;;-3.40;99.90;;;;;;5041308;28;20256;-49
2024/01/18 05:56:53;;;;;;;18.27;12.77;;;-3.40;99.90;;;;;;5038651;28;21009;-46
2024/01/18 05:59:20;;;;;;;17.97;13.00;;;-3.50;99.90;;;;;;5029762;28;20280;-47
2024/01/18 06:01:47;;;;;;;20.60;12.77;;;-3.50;99.90;;;;;;5036410;28;20195;-50
2024/01/18 06:04:14;;;;;;;19.33;13.23;;;-3.50;99.90;;;;;;4993997;28;20299;-48
2024/01/18 06:06:41;;;;;;;19.90;12.87;;;-3.50;99.90;;;;;;5040537;28;20721;-49
2024/01/18 06:09:09;;;;;;;21.03;13.87;;;-3.50;99.90;;;;;;5026453;28;20812;-49
2024/01/18 06:11:36;;;;;;;19.43;12.17;;;-3.50;99.90;;;;;;5039897;28;20801;-52
2024/01/18 06:14:03;;;;;;;16.83;12.30;;;-3.50;99.90;;;;;;5025606;28;21349;-45
2024/01/18 06:16:30;;;;;;;23.13;12.83;;;-3.60;99.90;;;;;;5039246;28;20265;-46
2024/01/18 06:18:57;;;;;;;23.63;14.03;;;-3.60;99.90;;;;;;5037202;28;20212;-46
2024/01/18 06:21:23;;;;;;;18.00;11.43;;;-3.70;99.90;;;;;;5004918;28;20234;-53
2024/01/18 06:23:50;;;;;;;18.17;12.37;;;-3.70;99.90;;;;;;5026521;28;20217;-49
2024/01/18 06:26:18;;;;;;;18.90;12.97;;;-3.70;99.90;;;;;;5042217;28;20192;-49
2024/01/18 06:28:46;;;;;;;20.67;12.43;;;-3.70;99.90;;;;;;5028184;28;20959;-46
2024/01/18 06:31:14;;;;;;;21.00;13.70;;;-3.80;99.90;;;;;;5028749;28;20359;-47
2024/01/18 06:33:41;;;;;;;16.70;12.50;;;-3.70;99.90;;;;;;5033582;28;20217;-49
2024/01/18 06:36:09;;;;;;;18.77;12.33;;;-3.70;99.90;;;;;;5009323;28;20286;-50
2024/01/18 06:38:35;;;;;;;16.97;12.70;;;-3.80;99.90;;;;;;5026472;28;20910;-49
2024/01/18 06:41:02;;;;;;;22.40;13.70;;;-3.80;99.90;;;;;;5042041;28;20321;-46
2024/01/18 06:43:31;;;;;;;17.93;11.77;;;-3.80;99.90;;;;;;5035716;28;20191;-51
2024/01/18 06:45:57;;;;;;;17.90;12.37;;;-3.80;99.90;;;;;;4990465;28;21851;-47
2024/01/18 06:48:25;;;;;;;20.23;12.93;;;-3.80;99.90;;;;;;5029570;28;20239;-46
2024/01/18 06:50:52;;;;;;;15.57;12.07;;;-3.90;99.90;;;;;;4994478;28;20203;-49
2024/01/18 06:53:19;;;;;;;18.03;12.13;;;-3.90;99.90;;;;;;5046921;28;20195;-49
2024/01/18 06:55:46;;;;;;;21.40;12.97;;;-3.90;99.90;;;;;;5034195;28;20203;-50
2024/01/18 06:58:13;;;;;;;18.43;13.10;;;-3.90;99.90;;;;;;5043281;28;20213;-47
2024/01/18 07:00:41;;;;;;;17.67;12.93;;;-3.80;99.90;;;;;;5038626;28;20249;-50
2024/01/18 07:03:09;;;;;;;17.03;13.27;;;-3.80;99.90;;;;;;5028029;28;20211;-47
2024/01/18 07:05:35;;;;;;;16.80;12.57;;;-3.80;99.90;;;;;;5044993;28;20278;-50
2024/01/18 07:08:03;;;;;;;20.20;12.80;;;-3.80;99.90;;;;;;4999464;28;20220;-47
2024/01/18 07:10:30;;;;;;;18.97;12.10;;;-3.90;99.90;;;;;;5027128;28;20204;-47
2024/01/18 07:12:57;;;;;;;20.73;13.43;;;-3.90;99.90;;;;;;5049976;28;20199;-46
2024/01/18 07:15:23;;;;;;;20.10;13.50;;;-3.90;99.90;;;;;;5045438;28;20218;-47
2024/01/18 07:17:51;;;;;;;21.90;12.93;;;-3.90;99.90;;;;;;5032618;28;20285;-46
2024/01/18 07:20:18;;;;;;;21.07;14.10;;;-3.90;99.90;;;;;;5045338;28;20203;-46
2024/01/18 07:22:45;;;;;;;23.77;15.23;;;-3.90;99.90;;;;;;5002537;28;20231;-47
2024/01/18 07:25:12;;;;;;;16.77;12.63;;;-3.80;99.90;;;;;;5037389;28;20658;-46
2024/01/18 07:27:39;;;;;;;20.10;12.50;;;-3.70;99.90;;;;;;5033273;28;20594;-50
2024/01/18 07:30:07;;;;;;;20.53;13.33;;;-3.70;99.90;;;;;;5043894;28;20222;-46
2024/01/18 07:32:34;;;;;;;19.07;12.30;;;-3.70;99.90;;;;;;5035508;28;20191;-51
2024/01/18 07:35:02;;;;;;;19.67;14.50;;;-3.70;99.90;;;;;;5031873;28;20303;-44
2024/01/18 07:37:30;;;;;;;20.53;13.73;;;-3.70;99.90;;;;;;5038239;28;20273;-47
2024/01/18 07:39:57;;;;;;;21.17;13.53;;;-3.70;99.90;;;;;;5008664;28;20235;-43
2024/01/18 07:42:24;;;;;;;16.83;12.13;;;-3.70;99.90;;;;;;5034717;28;20599;-42
2024/01/18 07:44:50;;;;;;;19.70;12.93;;;-3.70;99.90;;;;;;5033043;28;20225;-43
2024/01/18 07:47:18;;;;;;;18.30;12.80;;;-3.70;99.90;;;;;;5020065;28;20199;-45
2024/01/18 07:49:46;;;;;;;21.10;13.23;;;-3.70;99.90;;;;;;5029758;28;20243;-47
2024/01/18 07:52:14;;;;;;;20.87;12.80;;;-3.70;99.90;;;;;;5033131;28;20203;-46
2024/01/18 07:54:41;;;;;;;24.17;13.90;;;-3.70;99.90;;;;;;5011839;28;20576;-45
2024/01/18 07:57:08;;;;;;;21.37;12.83;;;-3.70;99.90;;;;;;5018729;28;23363;-44
2024/01/18 07:59:36;;;;;;;22.33;12.53;;;-3.70;99.90;;;;;;5040438;28;20207;-46
2024/01/18 08:02:03;;;;;;;18.63;12.50;;;-3.70;99.90;;;;;;5012874;28;20356;-43
2024/01/18 08:04:30;;;;;;;18.17;13.30;;;-3.70;99.90;;;;;;5027361;28;20265;-48
2024/01/18 08:06:57;;;;;;;22.63;13.17;;;-3.70;99.90;;;;;;5015190;28;20283;-43
2024/01/18 08:09:25;;;;;;;20.57;15.30;;;-3.70;99.90;;;;;;5012398;28;20319;-43
2024/01/18 08:11:52;;;;;;;22.00;14.33;;;-3.60;99.90;;;;;;5022992;28;20211;-44
2024/01/18 08:14:19;;;;;;;21.70;14.60;;;-3.60;99.90;;;;;;5041738;28;20249;-45
2024/01/18 08:16:46;;;;;;;19.83;13.53;;;-3.50;99.90;;;;;;5036380;28;20317;-44
2024/01/18 08:19:13;;;;;;;20.83;13.83;;;-3.50;99.90;;;;;;5032439;28;20291;-44
2024/01/18 08:21:44;;;;;;;21.87;14.60;;;-3.30;99.90;;;;;;5033793;28;20257;-46
2024/01/18 08:24:11;;;;;;;22.60;13.93;;;-3.20;99.90;;;;;;5035061;28;20294;-43
2024/01/18 08:26:41;;;;;;;22.00;14.63;;;-3.10;99.90;;;;;;5005691;28;20277;-46
2024/01/18 08:29:08;;;;;;;24.17;14.50;;;-3.00;99.90;;;;;;5044619;28;20215;-43
2024/01/18 08:31:35;;;;;;;22.03;14.57;;;-2.90;99.90;;;;;;5043958;28;20721;-44
2024/01/18 08:34:02;;;;;;;24.83;15.43;;;-2.80;99.90;;;;;;5040598;28;20714;-44
2024/01/18 08:36:29;;;;;;;22.07;15.47;;;-2.70;99.90;;;;;;5024688;28;20265;-43
2024/01/18 08:38:56;;;;;;;22.57;16.07;;;-2.60;99.90;;;;;;5038836;28;20264;-48
2024/01/18 08:41:23;;;;;;;25.03;16.33;;;-2.50;99.90;;;;;;5014921;28;20207;-44
2024/01/18 08:43:51;;;;;;;23.73;16.17;;;-2.30;99.90;;;;;;5019278;28;20218;-44
2024/01/18 08:46:17;;;;;;;22.90;15.23;;;-2.30;99.90;;;;;;5036492;28;20639;-45
2024/01/18 08:48:44;;;;;;;24.53;15.40;;;-2.20;99.90;;;;;;5028471;28;20285;-44
2024/01/18 08:51:13;;;;;;;23.90;15.73;;;-2.20;99.90;;;;;;5028269;28;20200;-46
2024/01/18 08:53:41;;;;;;;25.80;15.90;;;-2.10;99.90;;;;;;5029840;28;20208;-43
2024/01/18 08:56:08;;;;;;;24.40;16.43;;;-2.10;99.90;;;;;;5006943;28;20210;-46
2024/01/18 08:58:36;;;;;;;24.43;15.80;;;-2.00;99.90;;;;;;5006648;28;21182;-43
2024/01/18 09:01:04;;;;;;;23.43;15.43;;;-2.00;99.90;;;;;;5035092;28;20506;-42
2024/01/18 09:03:32;;;;;;;22.27;14.83;;;-1.90;99.90;;;;;;5037257;28;21033;-44
2024/01/18 09:05:58;;;;;;;24.33;14.97;;;-1.90;99.90;;;;;;5031247;28;20298;-44
2024/01/18 09:08:25;;;;;;;25.20;16.10;;;-1.80;99.90;;;;;;5018761;28;21139;-44
2024/01/18 09:10:52;;;;;;;26.60;16.07;;;-1.80;99.90;;;;;;5046901;28;20271;-45
2024/01/18 09:13:20;;;;;;;18.53;14.17;;;-1.80;99.90;;;;;;4998320;28;20673;-44
2024/01/18 09:15:48;;;;;;;24.17;14.60;;;-1.70;99.90;;;;;;5038882;28;20202;-44
2024/01/18 09:18:16;;;;;;;19.87;14.43;;;-1.70;99.90;;;;;;5036564;28;20222;-44
2024/01/18 09:20:45;;;;;;;19.70;14.47;;;-1.60;99.90;;;;;;5036545;28;20200;-44
2024/01/18 09:23:12;;;;;;;19.57;14.50;;;-1.50;99.90;;;;;;5018433;28;20688;-47
2024/01/18 09:25:39;;;;;;;20.43;13.53;;;-1.40;99.90;;;;;;5033788;28;20228;-44
2024/01/18 09:28:07;;;;;;;21.03;13.33;;;-1.40;99.90;;;;;;5009993;28;20218;-45
2024/01/18 09:30:34;;;;;;;21.93;14.23;;;-1.30;99.90;;;;;;5038083;28;20199;-47
2024/01/18 09:33:02;;;;;;;21.97;14.37;;;-1.20;99.90;;;;;;5041009;28;20199;-43
2024/01/18 09:35:30;;;;;;;19.00;12.13;;;-1.10;99.90;;;;;;5036477;28;20258;-43
2024/01/18 09:37:57;;;;;;;15.97;13.20;;;-1.10;99.90;;;;;;5023150;28;20255;-44
2024/01/18 09:40:24;;;;;;;18.80;13.13;;;-1.00;99.90;;;;;;5040698;28;20255;-44
2024/01/18 09:42:54;;;;;;;18.50;13.10;;;-1.00;99.90;;;;;;5036980;28;20288;-44
2024/01/18 09:45:26;;;;;;;16.20;11.77;;;-1.00;99.90;;;;;;4997736;28;20932;-44
2024/01/18 09:47:53;;;;;;;18.63;12.60;;;-0.90;99.90;;;;;;5037088;28;20237;-43
2024/01/18 09:50:22;;;;;;;18.10;12.20;;;-0.70;99.90;;;;;;5033873;28;20807;-43
2024/01/18 09:52:50;;;;;;;19.77;12.77;;;-0.60;99.90;;;;;;5032110;28;20674;-43
2024/01/18 09:55:17;;;;;;;20.30;13.13;;;-0.50;99.90;;;;;;5022168;28;20212;-43
2024/01/18 09:57:49;;;;;;;18.93;12.53;;;-0.30;99.90;;;;;;5037621;28;20222;-44
2024/01/18 10:00:20;;;;;;;16.40;11.27;;;-0.30;99.90;;;;;;5001158;28;20829;-43
2024/01/18 10:02:47;;;;;;;14.70;11.77;;;-0.30;99.90;;;;;;5038337;28;20575;-45
2024/01/18 10:05:14;;;;;;;16.60;10.97;;;-0.30;99.90;;;;;;5039389;28;20214;-47
2024/01/18 10:07:41;;;;;;;13.57;11.70;;;-0.30;99.90;;;;;;5030601;28;20231;-45
2024/01/18 10:10:14;;;;;;;15.53;9.93;;;-0.20;99.90;;;;;;5028396;28;20249;-45
2024/01/18 10:12:42;;;;;;;19.50;11.20;;;-0.20;99.90;;;;;;5030885;28;20623;-46
2024/01/18 10:15:10;;;;;;;17.53;11.23;;;-0.20;99.90;;;;;;5011492;28;20356;-44
2024/01/18 10:17:39;;;;;;;14.43;10.63;;;-0.20;99.90;;;;;;5028590;28;20228;-45
2024/01/18 10:20:13;;;;;;;13.90;10.53;;;-0.20;99.90;;;;;;5038593;28;20219;-48
2024/01/18 10:22:43;;;;;;;16.13;11.23;;;-0.10;99.90;;;;;;5036511;28;20204;-47
2024/01/18 10:25:14;;;;;;;14.77;10.27;;;-0.10;99.90;;;;;;5025940;28;20614;-46
2024/01/18 10:27:42;;;;;;;14.13;9.70;;;0.00;99.90;;;;;;5034895;28;20321;-44
2024/01/18 10:30:12;;;;;;;12.30;9.30;;;0.00;99.90;;;;;;5006349;28;20292;-45
2024/01/18 10:32:40;;;;;;;16.03;10.17;;;0.00;99.90;;;;;;5025951;28;20222;-47
2024/01/18 10:35:07;;;;;;;13.10;9.13;;;0.00;99.90;;;;;;5029328;28;20265;-45
2024/01/18 10:37:35;;;;;;;12.60;8.80;;;0.10;99.90;;;;;;5033178;28;20304;-48
2024/01/18 10:40:04;;;;;;;11.30;9.47;;;0.10;99.90;;;;;;5026293;28;20230;-47
2024/01/18 10:42:32;;;;;;;15.07;9.73;;;0.20;99.90;;;;;;5029774;28;20976;-45
2024/01/18 10:45:02;;;;;;;12.50;9.33;;;0.30;99.90;;;;;;5008693;28;20210;-48
2024/01/18 10:47:30;;;;;;;14.83;9.83;;;0.30;99.90;;;;;;5025178;28;21310;-44
2024/01/18 10:49:58;;;;;;;8.17;7.13;;;0.30;99.90;;;;;;5039430;28;20253;-43
2024/01/18 10:52:26;;;;;;;12.83;8.43;;;0.40;99.90;;;;;;5033132;28;20777;-46
2024/01/18 10:54:55;;;;;;;11.77;8.17;;;0.40;99.90;;;;;;5036376;28;20199;-46
2024/01/18 10:57:22;;;;;;;11.13;8.17;;;0.40;99.90;;;;;;5018155;28;20294;-43
2024/01/18 10:59:52;;;;;;;11.87;7.73;;;0.50;99.90;;;;;;5009659;28;20300;-42
2024/01/18 11:02:19;;;;;;;10.83;7.77;;;0.50;99.90;;;;;;5021571;28;20196;-45
2024/01/18 11:04:48;;;;;;;8.77;7.57;;;0.60;99.90;;;;;;5035236;28;20203;-43
2024/01/18 11:07:16;;;;;;;9.20;7.27;;;0.70;99.90;;;;;;5034528;28;20207;-46
2024/01/18 11:09:43;;;;;;;10.13;7.13;;;0.80;99.90;;;;;;5040838;28;20730;-44
2024/01/18 11:12:13;;;;;;;9.93;7.03;;;0.90;99.90;;;;;;5029091;28;20199;-44
2024/01/18 11:14:40;;;;;;;9.93;6.83;;;1.00;99.90;;;;;;5032315;28;20237;-46
2024/01/18 11:17:12;;;;;;;9.60;6.87;;;1.10;99.90;;;;;;5009568;28;20213;-48
2024/01/18 11:19:40;;;;;;;7.93;6.47;;;1.10;99.90;;;;;;5027706;28;20229;-43
2024/01/18 11:22:10;;;;;;;8.20;6.43;;;1.10;99.90;;;;;;5034118;28;20206;-49
2024/01/18 11:24:37;;;;;;;11.50;6.07;;;1.10;99.90;;;;;;5031025;28;20188;-44
2024/01/18 11:27:17;;;;;;;6.43;5.83;;;1.00;99.90;;;;;;5030454;28;20207;-46
2024/01/18 11:29:45;;;;;;;8.50;6.03;;;1.00;99.90;;;;;;5029278;28;20211;-47
2024/01/18 11:32:16;;;;;;;8.77;5.20;;;1.00;99.90;;;;;;5010159;28;20282;-43
2024/01/18 11:34:43;;;;;;;7.97;5.87;;;1.00;99.90;;;;;;5026351;28;20207;-44
2024/01/18 11:37:11;;;;;;;9.70;6.50;;;1.00;99.90;;;;;;5035031;28;20192;-46
2024/01/18 11:39:56;;;;;;;7.63;6.20;;;1.10;99.90;;;;;;5032557;28;20207;-44
2024/01/18 11:42:24;;;;;;;13.00;6.90;;;1.10;99.90;;;;;;5026953;28;20784;-44
2024/01/18 11:44:55;;;;;;;9.20;6.33;;;1.20;99.90;;;;;;5041559;28;20199;-43
2024/01/18 11:47:25;;;;;;;7.90;5.40;;;1.20;99.90;;;;;;5011266;28;21598;-47
2024/01/18 11:49:52;;;;;;;8.57;6.13;;;1.40;99.90;;;;;;5033457;28;20234;-45
2024/01/18 11:52:21;;;;;;;9.97;6.10;;;1.40;99.90;;;;;;5028411;28;20284;-43
2024/01/18 11:54:52;;;;;;;6.67;4.93;;;1.50;99.90;;;;;;5045878;28;20195;-48
2024/01/18 11:57:19;;;;;;;10.83;4.43;;;1.50;99.90;;;;;;5013353;28;20913;-42
2024/01/18 11:59:46;;;;;;;8.97;4.80;;;1.50;99.90;;;;;;5027250;28;20227;-44
2024/01/18 12:02:14;;;;;;;8.67;5.10;;;1.50;99.90;;;;;;5008098;28;20202;-47
2024/01/18 12:04:42;;;;;;;8.07;5.23;;;1.50;99.90;;;;;;5038321;28;20188;-47
2024/01/18 12:07:11;;;;;;;5.43;4.67;;;1.60;99.90;;;;;;5037424;28;21033;-44
2024/01/18 12:09:38;;;;;;;6.90;4.63;;;1.70;99.90;;;;;;5039306;28;20204;-49
2024/01/18 12:12:06;;;;;;;6.70;4.87;;;1.70;99.90;;;;;;5021774;28;20886;-45
2024/01/18 12:14:33;;;;;;;5.97;4.37;;;1.70;99.90;;;;;;5027011;28;20268;-44
2024/01/18 12:17:01;;;;;;;5.63;4.10;;;1.70;99.90;;;;;;5010573;28;20914;-45
2024/01/18 12:19:32;;;;;;;10.73;4.13;;;1.70;99.90;;;;;;5043694;28;20207;-46
2024/01/18 12:22:02;;;;;;;5.30;3.93;;;1.80;99.90;;;;;;5026188;28;20295;-47
2024/01/18 12:24:29;;;;;;;7.57;3.90;;;1.80;99.90;;;;;;5025856;28;20307;-45
2024/01/18 12:26:56;;;;;;;8.50;4.07;;;1.80;99.90;;;;;;5038984;28;20238;-44
2024/01/18 12:29:24;;;;;;;3.70;3.40;;;1.90;99.90;;;;;;5029484;28;20219;-45
2024/01/18 12:31:51;;;;;;;7.87;3.40;;;1.90;99.90;;;;;;5016650;28;20287;-51